createdAt,value
2022-08-23T00:01:31.258Z,3.20
2022-08-23T00:04:00.956Z,3.00
2022-08-23T00:06:29.804Z,3.57
2022-08-23T00:08:58.900Z,3.37
2022-08-23T00:11:30.488Z,3.30
2022-08-23T00:13:59.468Z,4.00
2022-08-23T00:16:28.221Z,3.40
2022-08-23T00:18:56.475Z,3.20
2022-08-23T00:21:24.805Z,3.33
2022-08-23T00:23:53.032Z,3.27
2022-08-23T00:26:21.515Z,3.30
2022-08-23T00:28:51.791Z,3.40
2022-08-23T00:31:20.513Z,3.47
2022-08-23T00:33:48.781Z,3.10
2022-08-23T00:36:16.980Z,3.13
2022-08-23T00:38:45.195Z,3.50
2022-08-23T00:41:13.436Z,3.07
2022-08-23T00:44:01.277Z,3.40
2022-08-23T00:46:54.936Z,3.40
2022-08-23T00:49:23.292Z,3.37
2022-08-23T00:51:54.185Z,3.30
2022-08-23T00:54:23.835Z,3.50
2022-08-23T00:56:52.226Z,3.53
2022-08-23T00:59:20.889Z,3.63
2022-08-23T01:01:50.615Z,3.13
2022-08-23T01:04:19.507Z,3.60
2022-08-23T01:06:49.885Z,2.93
2022-08-23T01:09:19.864Z,3.40
2022-08-23T01:11:51.687Z,3.27
2022-08-23T01:14:23.617Z,3.90
2022-08-23T01:16:55.886Z,3.70
2022-08-23T01:19:26.475Z,3.47
2022-08-23T01:22:01.585Z,3.30
2022-08-23T01:25:07.319Z,3.60
2022-08-23T01:27:19.497Z,3.23
2022-08-23T01:29:48.333Z,3.40
2022-08-23T01:32:16.744Z,3.53
2022-08-23T01:34:45.970Z,3.50
2022-08-23T01:37:21.238Z,3.77
2022-08-23T01:39:50.835Z,2.97
2022-08-23T01:42:19.083Z,3.40
2022-08-23T01:44:47.312Z,3.17
2022-08-23T01:47:15.488Z,3.70
2022-08-23T01:49:43.791Z,3.40
2022-08-23T01:52:12.011Z,3.50
2022-08-23T01:54:41.237Z,3.07
2022-08-23T01:57:11.679Z,3.57
2022-08-23T01:59:40.147Z,3.60
2022-08-23T02:02:08.429Z,3.53
2022-08-23T02:04:36.692Z,3.27
2022-08-23T02:07:04.991Z,3.43
2022-08-23T02:09:33.200Z,3.20
2022-08-23T02:12:01.438Z,3.20
2022-08-23T02:14:31.056Z,3.50
2022-08-23T02:17:03.683Z,3.57
2022-08-23T02:19:33.471Z,3.50
2022-08-23T02:22:01.863Z,3.03
2022-08-23T02:24:31.234Z,3.73
2022-08-23T02:27:02.006Z,3.00
2022-08-23T02:29:32.209Z,2.90
2022-08-23T02:32:01.406Z,2.80
2022-08-23T02:34:30.379Z,2.97
2022-08-23T02:36:58.999Z,3.00
2022-08-23T02:39:27.227Z,3.33
2022-08-23T02:41:55.652Z,2.67
2022-08-23T02:44:24.374Z,2.87
2022-08-23T02:46:53.952Z,2.60
2022-08-23T02:49:22.259Z,2.83
2022-08-23T02:51:50.840Z,2.80
2022-08-23T02:54:19.047Z,3.03
2022-08-23T02:56:47.336Z,2.60
2022-08-23T02:59:15.805Z,2.60
2022-08-23T03:01:45.331Z,2.60
2022-08-23T03:04:14.951Z,2.60
2022-08-23T03:06:43.191Z,2.60
2022-08-23T03:09:11.489Z,2.83
2022-08-23T03:11:40.028Z,2.63
2022-08-23T03:14:08.262Z,2.30
2022-08-23T03:16:36.555Z,2.87
2022-08-23T03:19:04.953Z,2.70
2022-08-23T03:21:34.541Z,2.80
2022-08-23T03:24:06.850Z,2.30
2022-08-23T03:26:37.887Z,3.03
2022-08-23T03:29:06.224Z,2.70
2022-08-23T03:31:34.424Z,2.77
2022-08-23T03:34:02.616Z,2.77
2022-08-23T03:36:30.858Z,2.70
2022-08-23T03:39:01.277Z,2.53
2022-08-23T03:41:29.521Z,2.47
2022-08-23T03:43:57.719Z,2.57
2022-08-23T03:46:25.986Z,2.40
2022-08-23T03:48:55.273Z,2.93
2022-08-23T03:51:24.327Z,2.40
2022-08-23T03:53:52.957Z,2.60
2022-08-23T03:56:27.193Z,2.30
2022-08-23T03:58:56.144Z,2.57
2022-08-23T04:01:28.641Z,2.37
2022-08-23T04:03:59.775Z,2.10
2022-08-23T04:06:28.095Z,2.27
2022-08-23T04:08:56.629Z,2.50
2022-08-23T04:11:26.453Z,2.30
2022-08-23T04:13:54.968Z,2.20
2022-08-23T04:16:23.371Z,2.67
2022-08-23T04:18:51.591Z,2.23
2022-08-23T04:21:22.406Z,2.20
2022-08-23T04:23:51.204Z,2.60
2022-08-23T04:26:19.823Z,2.43
2022-08-23T04:28:49.855Z,2.50
2022-08-23T04:31:19.401Z,2.83
2022-08-23T04:33:52.625Z,2.27
2022-08-23T04:36:23.502Z,2.60
2022-08-23T04:38:51.936Z,2.80
2022-08-23T04:41:38.023Z,2.77
2022-08-23T04:44:07.588Z,2.20
2022-08-23T04:46:36.187Z,2.70
2022-08-23T04:49:04.738Z,2.80
2022-08-23T04:51:32.944Z,2.27
2022-08-23T04:54:01.135Z,2.37
2022-08-23T04:56:29.449Z,2.80
2022-08-23T04:58:57.848Z,2.97
2022-08-23T05:01:27.510Z,2.50
2022-08-23T05:03:55.879Z,2.37
2022-08-23T05:06:24.357Z,2.30
2022-08-23T05:08:52.603Z,2.93
2022-08-23T05:11:20.841Z,2.47
2022-08-23T05:13:49.504Z,2.17
2022-08-23T05:16:18.009Z,2.40
2022-08-23T05:18:47.941Z,2.60
2022-08-23T05:21:17.256Z,2.70
2022-08-23T05:23:45.611Z,2.37
2022-08-23T05:26:20.006Z,2.83
2022-08-23T05:28:49.049Z,2.20
2022-08-23T05:31:18.127Z,2.50
2022-08-23T05:33:48.010Z,2.30
2022-08-23T05:36:17.543Z,3.00
2022-08-23T05:38:46.856Z,2.33
2022-08-23T05:41:16.028Z,2.40
2022-08-23T05:43:44.295Z,2.80
2022-08-23T05:46:13.657Z,2.27
2022-08-23T05:48:42.493Z,2.23
2022-08-23T05:51:13.280Z,2.30
2022-08-23T05:53:42.827Z,2.77
2022-08-23T05:56:12.565Z,2.30
2022-08-23T05:58:41.920Z,2.70
2022-08-23T06:01:10.339Z,2.13
2022-08-23T06:03:38.623Z,2.00
2022-08-23T06:06:07.016Z,2.40
2022-08-23T06:08:38.463Z,2.63
2022-08-23T06:11:07.695Z,2.37
2022-08-23T06:13:36.371Z,2.40
2022-08-23T06:16:14.680Z,2.78
2022-08-23T06:18:44.368Z,2.38
2022-08-23T06:21:14.066Z,2.33
2022-08-23T06:23:44.176Z,2.30
2022-08-23T06:26:13.912Z,2.45
2022-08-23T06:28:50.211Z,2.42
2022-08-23T06:31:39.745Z,2.00
2022-08-23T06:34:08.424Z,2.70
2022-08-23T06:36:37.239Z,2.10
2022-08-23T06:39:07.396Z,2.72
2022-08-23T06:41:35.956Z,2.37
2022-08-23T06:44:04.452Z,2.30
2022-08-23T06:46:33.177Z,2.50
2022-08-23T06:49:05.126Z,2.30
2022-08-23T06:51:35.811Z,2.17
2022-08-23T06:54:06.569Z,2.33
2022-08-23T06:56:37.014Z,2.72
2022-08-23T06:59:06.379Z,2.40
2022-08-23T07:01:51.593Z,2.83
2022-08-23T07:04:21.153Z,2.45
2022-08-23T07:06:49.549Z,2.70
2022-08-23T07:09:18.571Z,2.40
2022-08-23T07:11:48.128Z,2.40
2022-08-23T07:14:17.486Z,2.42
2022-08-23T07:16:48.304Z,2.20
2022-08-23T07:19:16.953Z,2.35
2022-08-23T07:21:45.888Z,2.40
2022-08-23T07:24:17.110Z,2.50
2022-08-23T07:26:46.312Z,2.33
2022-08-23T07:29:16.195Z,2.30
2022-08-23T07:31:45.885Z,2.45
2022-08-23T07:34:15.592Z,2.70
2022-08-23T07:36:44.474Z,2.35
2022-08-23T07:39:12.907Z,2.45
2022-08-23T07:41:41.592Z,2.90
2022-08-23T07:44:10.624Z,2.63
2022-08-23T07:46:41.316Z,2.30
2022-08-23T07:49:10.044Z,2.22
2022-08-23T07:51:38.623Z,2.70
2022-08-23T07:54:08.423Z,1.98
2022-08-23T07:56:37.332Z,2.30
2022-08-23T07:59:05.780Z,2.45
2022-08-23T08:01:34.067Z,2.40
2022-08-23T08:04:04.484Z,2.25
2022-08-23T08:06:33.621Z,2.55
2022-08-23T08:09:02.075Z,2.17
2022-08-23T08:11:34.870Z,2.30
2022-08-23T08:14:04.339Z,2.60
2022-08-23T08:16:33.454Z,2.40
2022-08-23T08:19:03.008Z,2.33
2022-08-23T08:21:32.557Z,2.00
2022-08-23T08:24:00.800Z,2.67
2022-08-23T08:26:29.160Z,2.38
2022-08-23T08:28:57.437Z,2.08
2022-08-23T08:31:27.461Z,2.30
2022-08-23T08:33:56.020Z,2.10
2022-08-23T08:36:32.538Z,2.17
2022-08-23T08:39:02.311Z,2.05
2022-08-23T08:41:42.768Z,2.17
2022-08-23T08:44:16.381Z,2.50
2022-08-23T08:46:46.234Z,2.20
2022-08-23T08:49:16.604Z,2.22
2022-08-23T08:51:47.884Z,2.35
2022-08-23T08:54:18.968Z,2.25
2022-08-23T08:56:49.078Z,2.10
2022-08-23T08:59:21.276Z,2.40
2022-08-23T09:01:49.582Z,2.30
2022-08-23T09:04:17.924Z,2.30
2022-08-23T09:06:51.882Z,1.90
2022-08-23T09:09:27.253Z,2.00
2022-08-23T09:11:59.966Z,2.30
2022-08-23T09:14:45.824Z,2.05
2022-08-23T09:17:20.851Z,2.05
2022-08-23T09:19:51.445Z,2.28
2022-08-23T09:22:22.664Z,1.98
2022-08-23T09:24:52.226Z,1.83
2022-08-23T09:27:20.575Z,1.88
2022-08-23T09:29:56.738Z,1.95
2022-08-23T09:32:29.483Z,2.00
2022-08-23T09:35:07.736Z,2.00
2022-08-23T09:37:47.315Z,1.90
2022-08-23T09:40:18.283Z,2.08
2022-08-23T09:42:47.337Z,1.77
2022-08-23T09:45:26.639Z,2.10
2022-08-23T09:47:55.320Z,2.05
2022-08-23T09:50:27.083Z,2.00
2022-08-23T09:53:03.953Z,1.98
2022-08-23T09:55:35.243Z,2.20
2022-08-23T09:58:06.664Z,1.95
2022-08-23T10:00:35.989Z,1.90
2022-08-23T10:03:24.441Z,2.08
2022-08-23T10:05:53.931Z,1.90
2022-08-23T10:08:28.284Z,2.25
2022-08-23T10:11:00.068Z,1.90
2022-08-23T10:13:28.870Z,2.08
2022-08-23T10:16:03.085Z,1.70
2022-08-23T10:18:37.129Z,1.83
2022-08-23T10:21:07.586Z,1.90
2022-08-23T10:23:41.467Z,1.60
2022-08-23T10:26:15.721Z,1.90
2022-08-23T10:29:04.825Z,2.20
2022-08-23T10:31:36.656Z,1.88
2022-08-23T10:34:22.238Z,1.55
2022-08-23T10:36:58.051Z,1.60
2022-08-23T10:39:27.633Z,1.65
2022-08-23T10:42:00.574Z,1.80
2022-08-23T10:44:33.747Z,1.98
2022-08-23T10:47:08.188Z,1.88
2022-08-23T10:49:38.361Z,1.70
2022-08-23T10:52:06.912Z,1.55
2022-08-23T10:54:46.303Z,1.95
2022-08-23T10:57:16.995Z,1.80
2022-08-23T10:59:45.661Z,1.73
2022-08-23T11:02:20.647Z,1.33
2022-08-23T11:04:53.421Z,1.75
2022-08-23T11:07:23.615Z,1.95
2022-08-23T11:09:53.939Z,1.88
2022-08-23T11:12:40.227Z,1.60
2022-08-23T11:15:15.013Z,1.63
2022-08-23T11:17:45.560Z,1.42
2022-08-23T11:20:15.372Z,1.30
2022-08-23T11:22:58.465Z,1.63
2022-08-23T11:25:40.920Z,1.40
2022-08-23T11:28:28.429Z,1.90
2022-08-23T11:31:19.029Z,2.00
2022-08-23T11:33:48.891Z,1.80
2022-08-23T11:36:21.877Z,1.70
2022-08-23T11:39:04.543Z,1.40
2022-08-23T11:41:33.973Z,1.48
2022-08-23T11:44:21.097Z,1.60
2022-08-23T11:47:04.493Z,1.40
2022-08-23T11:49:40.643Z,1.67
2022-08-23T11:52:15.934Z,1.60
2022-08-23T11:54:50.118Z,1.38
2022-08-23T11:57:28.222Z,1.40
2022-08-23T12:00:14.491Z,1.77
2022-08-23T12:02:53.217Z,1.48
2022-08-23T12:05:32.440Z,1.30
2022-08-23T12:08:20.479Z,1.30
2022-08-23T12:11:06.262Z,1.60
2022-08-23T12:13:46.526Z,1.27
2022-08-23T12:16:29.470Z,1.50
2022-08-23T12:19:00.906Z,1.38
2022-08-23T12:21:33.108Z,1.85
2022-08-23T12:24:02.912Z,1.40
2022-08-23T12:26:36.229Z,1.63
2022-08-23T12:29:07.226Z,1.65
2022-08-23T12:31:40.641Z,1.50
2022-08-23T12:34:13.951Z,1.45
2022-08-23T12:36:46.786Z,1.67
2022-08-23T12:39:22.493Z,1.67
2022-08-23T12:41:55.570Z,1.35
2022-08-23T12:44:25.449Z,1.40
2022-08-23T12:46:54.237Z,1.40
2022-08-23T12:49:28.022Z,1.30
2022-08-23T12:51:57.411Z,1.40
2022-08-23T12:54:33.584Z,1.50
2022-08-23T12:57:09.741Z,1.30
2022-08-23T12:59:39.432Z,1.30
2022-08-23T13:02:10.145Z,1.40
2022-08-23T13:04:40.337Z,1.50
2022-08-23T13:07:10.216Z,0.98
2022-08-23T13:09:41.025Z,1.30
2022-08-23T13:12:10.148Z,1.50
2022-08-23T13:14:43.971Z,1.30
2022-08-23T13:17:17.179Z,1.63
2022-08-23T13:19:47.236Z,2.60
2022-08-23T13:22:16.484Z,1.92
2022-08-23T13:24:45.688Z,1.67
2022-08-23T13:27:15.907Z,1.70
2022-08-23T13:29:51.041Z,1.75
2022-08-23T13:32:29.970Z,1.60
2022-08-23T13:35:13.040Z,1.73
2022-08-23T13:37:46.471Z,2.00
2022-08-23T13:40:17.358Z,1.42
2022-08-23T13:42:51.132Z,1.35
2022-08-23T13:45:21.634Z,1.58
2022-08-23T13:47:51.813Z,1.40
2022-08-23T13:50:24.450Z,1.33
2022-08-23T13:53:14.030Z,1.20
2022-08-23T13:55:43.175Z,1.23
2022-08-23T13:58:12.199Z,1.52
2022-08-23T14:00:40.642Z,1.25
2022-08-23T14:03:23.123Z,1.30
2022-08-23T14:05:51.363Z,1.35
2022-08-23T14:08:20.921Z,1.20
2022-08-23T14:10:49.374Z,1.33
2022-08-23T14:13:18.293Z,1.45
2022-08-23T14:15:56.414Z,1.50
2022-08-23T14:18:25.423Z,1.67
2022-08-23T14:20:53.783Z,1.30
2022-08-23T14:23:23.349Z,1.40
2022-08-23T14:25:53.233Z,1.30
2022-08-23T14:28:21.440Z,1.27
2022-08-23T14:30:49.702Z,1.55
2022-08-23T14:33:18.151Z,1.42
2022-08-23T14:35:46.380Z,1.27
2022-08-23T14:38:15.146Z,1.83
2022-08-23T14:40:49.188Z,1.25
2022-08-23T14:43:17.387Z,1.60
2022-08-23T14:45:45.674Z,1.58
2022-08-23T14:48:13.939Z,1.45
2022-08-23T14:50:42.677Z,1.10
2022-08-23T14:53:11.360Z,1.40
2022-08-23T14:55:39.577Z,1.20
2022-08-23T14:58:09.332Z,1.20
2022-08-23T15:00:37.772Z,1.20
2022-08-23T15:03:10.003Z,1.13
2022-08-23T15:05:38.489Z,1.13
2022-08-23T15:08:06.726Z,1.33
2022-08-23T15:10:51.290Z,1.50
2022-08-23T15:13:32.485Z,1.70
2022-08-23T15:16:01.614Z,1.50
2022-08-23T15:18:30.379Z,1.40
2022-08-23T15:20:58.634Z,1.33
2022-08-23T15:23:27.229Z,1.60
2022-08-23T15:25:55.581Z,1.47
2022-08-23T15:28:25.625Z,1.10
2022-08-23T15:30:54.052Z,1.40
2022-08-23T15:33:26.986Z,1.30
2022-08-23T15:35:58.239Z,1.23
2022-08-23T15:38:27.219Z,1.30
2022-08-23T15:40:56.301Z,1.43
2022-08-23T15:43:34.036Z,1.30
2022-08-23T15:46:05.541Z,1.27
2022-08-23T15:48:35.938Z,1.30
2022-08-23T15:51:05.834Z,1.40
2022-08-23T15:53:34.326Z,1.30
2022-08-23T15:56:05.767Z,1.73
2022-08-23T15:58:35.638Z,1.30
2022-08-23T16:01:05.727Z,1.07
2022-08-23T16:03:34.008Z,1.20
2022-08-23T16:06:03.525Z,1.20
2022-08-23T16:08:34.132Z,1.20
2022-08-23T16:11:04.932Z,1.40
2022-08-23T16:13:33.495Z,1.07
2022-08-23T16:16:03.149Z,1.20
2022-08-23T16:18:31.417Z,1.10
2022-08-23T16:20:59.657Z,1.23
2022-08-23T16:23:27.892Z,1.07
2022-08-23T16:26:00.854Z,1.10
2022-08-23T16:28:29.488Z,1.60
2022-08-23T16:30:57.803Z,1.40
2022-08-23T16:33:27.424Z,1.33
2022-08-23T16:35:55.734Z,1.33
2022-08-23T16:38:24.040Z,1.50
2022-08-23T16:40:52.247Z,1.10
2022-08-23T16:43:20.480Z,1.10
2022-08-23T16:45:48.825Z,1.30
2022-08-23T16:48:17.131Z,1.47
2022-08-23T16:50:46.759Z,1.10
2022-08-23T16:53:15.557Z,1.20
2022-08-23T16:55:44.464Z,1.07
2022-08-23T16:58:12.679Z,1.57
2022-08-23T17:00:40.873Z,4.57
2022-08-23T17:03:09.938Z,2.10
2022-08-23T17:05:38.814Z,2.00
2022-08-23T17:08:08.714Z,1.37
2022-08-23T17:10:37.587Z,2.10
2022-08-23T17:13:06.058Z,1.50
2022-08-23T17:15:35.402Z,1.40
2022-08-23T17:18:03.698Z,1.50
2022-08-23T17:20:34.502Z,1.40
2022-08-23T17:23:03.047Z,1.50
2022-08-23T17:25:35.475Z,1.93
2022-08-23T17:28:03.765Z,1.90
2022-08-23T17:30:32.053Z,1.50
2022-08-23T17:33:00.673Z,1.40
2022-08-23T17:35:34.018Z,1.50
2022-08-23T17:38:03.099Z,1.40
2022-08-23T17:40:33.318Z,1.03
2022-08-23T17:43:03.552Z,1.20
2022-08-23T17:45:34.124Z,1.30
2022-08-23T17:48:02.331Z,1.20
2022-08-23T17:50:30.552Z,0.90
2022-08-23T17:52:58.812Z,1.23
2022-08-23T17:55:27.105Z,1.20
2022-08-23T17:58:02.380Z,1.13
2022-08-23T18:00:34.150Z,1.10
2022-08-23T18:03:02.719Z,1.10
2022-08-23T18:05:33.137Z,1.30
2022-08-23T18:08:01.640Z,1.17
2022-08-23T18:10:30.936Z,1.23
2022-08-23T18:12:59.247Z,1.20
2022-08-23T18:15:28.686Z,1.10
2022-08-23T18:17:58.743Z,1.10
2022-08-23T18:20:27.503Z,1.20
2022-08-23T18:22:56.374Z,1.27
2022-08-23T18:25:24.631Z,1.33
2022-08-23T18:28:08.138Z,1.10
2022-08-23T18:30:37.061Z,1.00
2022-08-23T18:33:07.466Z,1.33
2022-08-23T18:35:40.962Z,1.30
2022-08-23T18:38:09.289Z,1.27
2022-08-23T18:40:45.305Z,1.30
2022-08-23T18:43:14.165Z,1.43
2022-08-23T18:45:42.499Z,1.60
2022-08-23T18:48:12.240Z,1.27
2022-08-23T18:50:40.528Z,1.80
2022-08-23T18:53:08.884Z,1.77
2022-08-23T18:55:37.396Z,2.30
2022-08-23T18:58:05.845Z,1.63
2022-08-23T19:00:34.097Z,1.90
2022-08-23T19:03:04.010Z,2.00
2022-08-23T19:05:41.591Z,3.00
2022-08-23T19:08:10.773Z,2.93
2022-08-23T19:10:39.446Z,3.47
2022-08-23T19:13:08.905Z,2.73
2022-08-23T19:15:37.576Z,3.10
2022-08-23T19:18:05.931Z,4.93
2022-08-23T19:20:35.588Z,6.30
2022-08-23T19:23:03.989Z,6.53
2022-08-23T19:25:33.881Z,6.63
2022-08-23T19:28:02.146Z,9.63
2022-08-23T19:30:30.372Z,7.60
2022-08-23T19:32:58.657Z,7.23
2022-08-23T19:35:28.883Z,7.60
2022-08-23T19:37:58.536Z,7.13
2022-08-23T19:40:26.894Z,5.40
2022-08-23T19:42:55.353Z,4.37
2022-08-23T19:45:23.699Z,3.40
2022-08-23T19:47:53.999Z,2.70
2022-08-23T19:50:23.822Z,1.90
2022-08-23T19:52:52.706Z,2.10
2022-08-23T19:55:23.829Z,2.57
2022-08-23T19:57:54.667Z,3.00
2022-08-23T20:00:22.904Z,3.10
2022-08-23T20:02:51.149Z,3.37
2022-08-23T20:05:19.549Z,3.33
2022-08-23T20:07:48.320Z,3.50
2022-08-23T20:10:17.236Z,4.23
2022-08-23T20:12:46.836Z,3.50
2022-08-23T20:15:15.194Z,2.97
2022-08-23T20:17:43.524Z,2.57
2022-08-23T20:20:13.698Z,2.30
2022-08-23T20:22:59.742Z,2.20
2022-08-23T20:25:29.067Z,1.70
2022-08-23T20:27:58.861Z,1.83
2022-08-23T20:30:28.202Z,1.90
2022-08-23T20:32:56.515Z,2.33
2022-08-23T20:35:24.855Z,1.90
2022-08-23T20:37:53.073Z,2.10
2022-08-23T20:40:23.023Z,2.13
2022-08-23T20:42:52.332Z,2.10
2022-08-23T20:45:22.787Z,2.63
2022-08-23T20:47:51.030Z,2.87
2022-08-23T20:50:19.339Z,3.10
2022-08-23T20:52:47.553Z,5.10
2022-08-23T20:55:15.927Z,5.60
2022-08-23T20:57:44.473Z,5.50
2022-08-23T21:00:13.536Z,4.30
2022-08-23T21:02:43.101Z,2.67
2022-08-23T21:05:11.486Z,2.37
2022-08-23T21:07:40.116Z,2.07
2022-08-23T21:10:10.463Z,1.80
2022-08-23T21:12:38.717Z,1.50
2022-08-23T21:15:10.902Z,1.30
2022-08-23T21:17:39.608Z,1.47
2022-08-23T21:20:09.858Z,1.40
2022-08-23T21:22:38.071Z,1.20
2022-08-23T21:25:06.705Z,1.30
2022-08-23T21:27:34.976Z,1.27
2022-08-23T21:30:03.351Z,1.47
2022-08-23T21:32:31.636Z,1.43
2022-08-23T21:35:00.152Z,1.10
2022-08-23T21:37:29.968Z,1.67
2022-08-23T21:39:58.214Z,2.30
2022-08-23T21:42:26.553Z,2.40
2022-08-23T21:44:54.767Z,3.10
2022-08-23T21:47:23.132Z,4.00
2022-08-23T21:49:51.386Z,3.33
2022-08-23T21:52:19.622Z,3.37
2022-08-23T21:54:49.293Z,3.10
2022-08-23T21:57:17.512Z,2.70
2022-08-23T21:59:45.697Z,2.30
2022-08-23T22:02:13.939Z,2.23
2022-08-23T22:04:42.172Z,2.10
2022-08-23T22:07:10.391Z,2.30
2022-08-23T22:09:38.907Z,1.77
2022-08-23T22:12:09.744Z,2.07
2022-08-23T22:14:38.340Z,1.40
2022-08-23T22:17:07.192Z,1.37
2022-08-23T22:19:35.408Z,1.30
2022-08-23T22:22:03.625Z,1.00
2022-08-23T22:24:31.805Z,1.67
2022-08-23T22:27:00.361Z,1.60
2022-08-23T22:29:29.980Z,1.30
2022-08-23T22:31:58.195Z,1.10
2022-08-23T22:34:27.440Z,1.10
2022-08-23T22:36:55.857Z,1.23
2022-08-23T22:39:24.284Z,1.30
2022-08-23T22:41:53.926Z,1.10
2022-08-23T22:44:22.088Z,1.10
2022-08-23T22:46:51.660Z,1.10
2022-08-23T22:49:19.905Z,1.10
2022-08-23T22:51:49.173Z,1.10
2022-08-23T22:54:24.589Z,1.10
2022-08-23T22:56:54.124Z,1.20
2022-08-23T22:59:25.856Z,0.93
2022-08-23T23:01:58.750Z,1.10
2022-08-23T23:04:27.778Z,1.20
2022-08-23T23:06:56.430Z,1.30
2022-08-23T23:09:24.848Z,1.20
2022-08-23T23:11:53.316Z,1.40
2022-08-23T23:14:22.319Z,1.30
2022-08-23T23:16:50.916Z,1.10
2022-08-23T23:19:38.666Z,1.30
2022-08-23T23:22:08.252Z,1.20
2022-08-23T23:24:39.282Z,1.17
2022-08-23T23:27:07.974Z,1.20
2022-08-23T23:29:36.472Z,1.40
2022-08-23T23:32:05.563Z,1.13
2022-08-23T23:34:35.145Z,1.10
2022-08-23T23:37:03.361Z,1.20
2022-08-23T23:39:31.610Z,1.10
2022-08-23T23:41:59.898Z,1.40
2022-08-23T23:44:31.731Z,1.20
2022-08-23T23:47:00.646Z,1.23
2022-08-23T23:49:32.303Z,1.40
2022-08-23T23:52:02.956Z,1.50
2022-08-23T23:54:31.352Z,1.30
2022-08-23T23:56:59.755Z,1.33
2022-08-23T23:59:28.111Z,1.50
